Time;durP1;ratioP1;P1;durP2;ratioP2;P2;SDS_P1;SDS_P2;PMS_P1;PMS_P2;Temp;Humidity;BMP_temperature;BMP_pressure;BME280_temperature;BME280_humidity;BME280_pressure;Samples;Min_cycle;Max_cycle;Signal;HPM_P1;HPM_P2
2023/08/05 00:00:46;;;;;;;12.67;6.47;;;15.20;99.90;;;;;;5096905;28;20624;-76
2023/08/05 00:03:12;;;;;;;8.63;6.63;;;15.20;99.90;;;;;;5096712;28;20203;-75
2023/08/05 00:05:37;;;;;;;7.63;6.80;;;15.20;99.90;;;;;;5096933;28;20221;-75
2023/08/05 00:08:04;;;;;;;11.47;6.63;;;15.20;99.90;;;;;;5096842;28;20170;-75
2023/08/05 00:10:30;;;;;;;8.47;6.90;;;15.30;99.90;;;;;;5096278;28;20250;-75
2023/08/05 00:12:56;;;;;;;8.90;7.13;;;15.30;99.90;;;;;;5096420;28;20285;-75
2023/08/05 00:15:22;;;;;;;8.43;7.03;;;15.30;99.90;;;;;;5096776;28;20260;-75
2023/08/05 00:17:48;;;;;;;9.53;7.20;;;15.30;99.90;;;;;;5096474;28;20262;-75
2023/08/05 00:20:13;;;;;;;11.57;6.97;;;15.30;99.90;;;;;;5096576;28;20187;-75
2023/08/05 00:22:39;;;;;;;8.57;7.13;;;15.40;99.90;;;;;;5096278;28;20619;-76
2023/08/05 00:25:05;;;;;;;9.03;6.90;;;15.30;99.90;;;;;;5096004;28;20219;-75
2023/08/05 00:27:31;;;;;;;7.00;6.37;;;15.30;99.90;;;;;;5096462;28;20636;-74
2023/08/05 00:29:57;;;;;;;8.00;6.63;;;15.30;99.90;;;;;;5096400;28;20168;-74
2023/08/05 00:32:22;;;;;;;8.87;7.10;;;15.30;99.90;;;;;;5094869;28;20204;-75
2023/08/05 00:34:48;;;;;;;11.43;7.03;;;15.30;99.90;;;;;;5096123;28;20692;-75
2023/08/05 00:37:14;;;;;;;10.63;6.80;;;15.30;99.90;;;;;;5096033;28;20164;-75
2023/08/05 00:39:39;;;;;;;7.40;6.50;;;15.40;99.90;;;;;;5095889;28;20168;-75
2023/08/05 00:42:06;;;;;;;9.97;7.77;;;15.30;99.90;;;;;;5095893;28;20224;-75
2023/08/05 00:44:31;;;;;;;8.17;7.20;;;15.30;99.90;;;;;;5096166;28;20215;-75
2023/08/05 00:46:57;;;;;;;10.00;7.80;;;15.30;99.90;;;;;;5095999;28;20496;-75
2023/08/05 00:49:23;;;;;;;7.23;6.50;;;15.30;99.90;;;;;;5096027;28;20180;-76
2023/08/05 00:51:50;;;;;;;10.03;7.07;;;15.30;99.90;;;;;;5095950;28;20196;-76
2023/08/05 00:54:16;;;;;;;9.87;7.03;;;15.20;99.90;;;;;;5095320;28;20183;-75
2023/08/05 00:56:43;;;;;;;7.90;6.83;;;15.20;99.90;;;;;;5095881;28;20246;-76
2023/08/05 00:59:09;;;;;;;10.07;6.57;;;15.20;99.90;;;;;;5095906;28;20172;-75
2023/08/05 01:01:34;;;;;;;7.77;6.63;;;15.20;99.90;;;;;;5095776;28;20164;-75
2023/08/05 01:04:00;;;;;;;9.23;7.00;;;15.10;99.90;;;;;;5095590;28;20203;-75
2023/08/05 01:06:27;;;;;;;7.37;6.47;;;15.10;99.90;;;;;;5095566;28;20692;-75
2023/08/05 01:08:54;;;;;;;9.40;7.60;;;15.10;99.90;;;;;;5095327;28;20172;-76
2023/08/05 01:11:19;;;;;;;7.07;6.37;;;15.10;99.90;;;;;;5095575;28;20168;-75
2023/08/05 01:13:45;;;;;;;11.97;7.87;;;15.10;99.90;;;;;;5095428;28;20297;-75
2023/08/05 01:16:11;;;;;;;10.13;7.30;;;15.20;99.90;;;;;;5095557;28;20168;-75
2023/08/05 01:18:38;;;;;;;11.00;7.30;;;15.20;99.90;;;;;;5095441;28;20526;-76
2023/08/05 01:21:22;;;;;;;10.83;7.27;;;15.20;99.90;;;;;;5095532;28;20254;-75
2023/08/05 01:23:54;;;;;;;10.63;7.17;;;15.20;99.90;;;;;;5095031;28;20207;-75
2023/08/05 01:26:20;;;;;;;9.23;7.67;;;15.10;99.90;;;;;;5095315;28;20164;-75
2023/08/05 01:28:46;;;;;;;11.87;7.70;;;15.10;99.90;;;;;;5095251;28;20325;-75
2023/08/05 01:31:13;;;;;;;8.73;7.57;;;15.10;99.90;;;;;;5095042;28;20646;-76
2023/08/05 01:33:39;;;;;;;10.27;8.00;;;15.20;99.90;;;;;;5094893;28;20178;-75
2023/08/05 01:36:04;;;;;;;13.13;8.43;;;15.10;99.90;;;;;;5095065;28;20609;-76
2023/08/05 01:38:30;;;;;;;10.30;7.40;;;15.10;99.90;;;;;;5094799;28;20168;-75
2023/08/05 01:40:55;;;;;;;8.77;7.87;;;15.00;99.90;;;;;;5093519;28;20682;-76
2023/08/05 01:43:21;;;;;;;14.13;7.77;;;15.00;99.90;;;;;;5094782;28;20230;-76
2023/08/05 01:45:46;;;;;;;11.40;7.93;;;14.90;99.90;;;;;;5094365;28;20263;-76
2023/08/05 01:48:12;;;;;;;10.77;7.57;;;14.90;99.90;;;;;;5094669;28;20191;-76
2023/08/05 01:50:38;;;;;;;12.20;7.33;;;15.00;99.90;;;;;;5095022;28;20175;-76
2023/08/05 01:53:03;;;;;;;8.67;7.37;;;15.00;99.90;;;;;;5094566;28;20533;-75
2023/08/05 01:55:29;;;;;;;8.73;7.20;;;14.90;99.90;;;;;;5093229;28;20191;-75
2023/08/05 01:57:54;;;;;;;11.50;7.50;;;14.90;99.90;;;;;;5094590;28;20175;-76
2023/08/05 02:00:23;;;;;;;8.70;7.53;;;14.90;99.90;;;;;;5094734;28;20581;-76
2023/08/05 02:02:48;;;;;;;9.20;7.93;;;14.90;99.90;;;;;;5094353;28;20175;-76
2023/08/05 02:05:14;;;;;;;11.63;7.33;;;14.90;99.90;;;;;;5094431;28;20663;-76
2023/08/05 02:07:39;;;;;;;7.67;6.97;;;14.90;99.90;;;;;;5094195;28;20622;-76
2023/08/05 02:10:05;;;;;;;8.10;6.43;;;14.90;99.90;;;;;;5094590;28;20216;-76
2023/08/05 02:12:31;;;;;;;9.37;7.20;;;14.90;99.90;;;;;;5094337;28;20518;-76
2023/08/05 02:14:57;;;;;;;10.00;7.47;;;14.90;99.90;;;;;;5094361;28;20170;-76
2023/08/05 02:17:22;;;;;;;12.37;7.67;;;14.90;99.90;;;;;;5094084;28;20168;-75
2023/08/05 02:19:48;;;;;;;8.93;7.53;;;14.90;99.90;;;;;;5094198;28;20210;-76
2023/08/05 02:22:13;;;;;;;9.47;7.30;;;15.00;99.90;;;;;;5093998;28;20172;-75
2023/08/05 02:24:39;;;;;;;11.20;7.07;;;15.00;99.90;;;;;;5094146;28;20206;-76
2023/08/05 02:27:05;;;;;;;8.90;7.60;;;15.00;99.90;;;;;;5094319;28;20681;-76
2023/08/05 02:29:30;;;;;;;12.67;7.57;;;15.00;99.90;;;;;;5094049;28;20180;-76
2023/08/05 02:31:56;;;;;;;10.53;7.43;;;14.90;99.90;;;;;;5092649;28;20222;-76
2023/08/05 02:34:22;;;;;;;11.33;7.50;;;15.00;99.90;;;;;;5092583;28;20175;-76
2023/08/05 02:36:48;;;;;;;12.03;7.97;;;15.00;99.90;;;;;;5094084;28;20160;-76
2023/08/05 02:39:14;;;;;;;8.80;7.10;;;15.00;99.90;;;;;;5094048;28;20637;-76
2023/08/05 02:41:40;;;;;;;9.27;7.50;;;15.00;99.90;;;;;;5093751;28;20216;-75
2023/08/05 02:44:06;;;;;;;7.93;7.03;;;15.00;99.90;;;;;;5093616;28;20216;-75
2023/08/05 02:46:31;;;;;;;10.67;7.07;;;15.00;99.90;;;;;;5093883;28;20182;-75
2023/08/05 02:48:57;;;;;;;9.53;6.70;;;15.00;99.90;;;;;;5093601;28;20247;-75
2023/08/05 02:51:22;;;;;;;6.87;6.17;;;15.00;99.90;;;;;;5093820;28;20164;-76
2023/08/05 02:53:48;;;;;;;8.97;6.70;;;14.90;99.90;;;;;;5093521;28;20620;-76
2023/08/05 02:56:14;;;;;;;9.63;6.37;;;14.90;99.90;;;;;;5093730;28;20168;-76
2023/08/05 02:58:39;;;;;;;9.53;6.37;;;15.00;99.90;;;;;;5092912;28;20183;-76
2023/08/05 03:01:08;;;;;;;9.03;6.83;;;15.10;99.90;;;;;;5092194;28;20172;-75
2023/08/05 03:03:35;;;;;;;7.03;6.33;;;15.10;99.90;;;;;;5093009;28;20212;-75
2023/08/05 03:06:01;;;;;;;6.70;6.10;;;15.10;99.90;;;;;;5093683;28;20639;-76
2023/08/05 03:08:27;;;;;;;7.43;6.27;;;15.10;99.90;;;;;;5093504;28;20168;-75
2023/08/05 03:10:58;;;;;;;8.73;5.93;;;15.10;99.90;;;;;;5092298;28;20171;-75
2023/08/05 03:13:24;;;;;;;8.30;6.20;;;15.00;99.90;;;;;;5093184;28;20166;-76
2023/08/05 03:15:49;;;;;;;8.90;6.30;;;15.00;99.90;;;;;;5093427;28;20583;-75
2023/08/05 03:18:15;;;;;;;6.90;6.30;;;15.00;99.90;;;;;;5093168;28;20168;-76
2023/08/05 03:20:41;;;;;;;6.60;6.00;;;15.00;99.90;;;;;;5093042;28;20255;-76
2023/08/05 03:23:06;;;;;;;7.37;6.10;;;15.00;99.90;;;;;;5092101;28;20577;-76
2023/08/05 03:25:32;;;;;;;8.33;6.27;;;15.00;99.90;;;;;;5093287;28;20191;-76
2023/08/05 03:27:58;;;;;;;7.27;5.90;;;14.90;99.90;;;;;;5093277;28;20259;-76
2023/08/05 03:30:23;;;;;;;9.53;5.90;;;14.90;99.90;;;;;;5093212;28;20661;-76
2023/08/05 03:32:49;;;;;;;6.83;6.20;;;14.90;99.90;;;;;;5091597;28;20657;-76
2023/08/05 03:35:15;;;;;;;8.40;6.00;;;14.90;99.90;;;;;;5093081;28;20168;-76
2023/08/05 03:37:41;;;;;;;7.47;6.30;;;14.80;99.90;;;;;;5093134;28;20179;-76
2023/08/05 03:40:07;;;;;;;9.43;6.63;;;14.80;99.90;;;;;;5091736;28;20176;-75
2023/08/05 03:42:32;;;;;;;8.57;6.27;;;14.90;99.90;;;;;;5092744;28;20241;-76
2023/08/05 03:44:58;;;;;;;7.87;6.10;;;14.90;99.90;;;;;;5092934;28;20204;-76
2023/08/05 03:47:24;;;;;;;8.47;6.30;;;14.90;99.90;;;;;;5092916;28;20168;-76
2023/08/05 03:49:50;;;;;;;8.60;6.37;;;14.90;99.90;;;;;;5092559;28;20172;-76
2023/08/05 03:52:15;;;;;;;8.47;6.10;;;14.80;99.90;;;;;;5091816;28;20175;-77
2023/08/05 03:54:41;;;;;;;11.27;6.57;;;14.80;99.90;;;;;;5092794;28;20522;-76
2023/08/05 03:57:09;;;;;;;6.20;5.60;;;14.70;99.90;;;;;;5092769;28;20172;-77
2023/08/05 03:59:36;;;;;;;6.90;5.67;;;14.80;99.90;;;;;;5092873;28;20183;-76
2023/08/05 04:02:03;;;;;;;6.60;5.83;;;14.80;99.90;;;;;;5092638;28;20226;-75
2023/08/05 04:04:28;;;;;;;9.77;5.67;;;14.80;99.90;;;;;;5092298;28;20203;-76
2023/08/05 04:06:54;;;;;;;7.90;5.57;;;14.90;99.90;;;;;;5092904;28;20173;-75
2023/08/05 04:09:20;;;;;;;6.77;5.00;;;14.90;99.90;;;;;;5094142;28;20203;-76
2023/08/05 04:11:48;;;;;;;6.50;5.50;;;14.90;99.90;;;;;;5096423;28;20176;-76
2023/08/05 04:14:16;;;;;;;6.07;5.00;;;15.00;99.90;;;;;;5095242;28;20250;-75
2023/08/05 04:16:42;;;;;;;7.57;5.47;;;15.00;99.90;;;;;;5096062;28;20195;-76
2023/08/05 04:19:08;;;;;;;6.23;4.70;;;15.10;99.90;;;;;;5096396;28;20643;-76
2023/08/05 04:21:35;;;;;;;5.13;4.63;;;15.20;99.90;;;;;;5096289;28;20264;-76
2023/08/05 04:24:01;;;;;;;5.70;4.80;;;15.10;99.90;;;;;;5096322;28;20349;-75
2023/08/05 04:26:27;;;;;;;6.33;4.70;;;15.10;99.90;;;;;;5096121;28;20177;-77
2023/08/05 04:28:53;;;;;;;6.17;4.93;;;15.20;99.90;;;;;;5096273;28;20180;-75
2023/08/05 04:31:18;;;;;;;5.07;4.50;;;15.20;99.90;;;;;;5096071;28;20171;-75
2023/08/05 04:33:46;;;;;;;6.03;5.03;;;15.10;99.90;;;;;;5096324;28;20249;-75
2023/08/05 04:36:12;;;;;;;5.07;4.57;;;15.10;99.90;;;;;;5096210;28;20183;-75
2023/08/05 04:38:37;;;;;;;5.60;4.90;;;15.10;99.90;;;;;;5096153;28;20178;-75
2023/08/05 04:41:03;;;;;;;7.17;5.17;;;15.10;99.90;;;;;;5095358;28;20219;-76
2023/08/05 04:43:29;;;;;;;7.90;5.30;;;15.20;99.90;;;;;;5095858;28;20229;-76
2023/08/05 04:45:54;;;;;;;6.50;4.90;;;15.40;99.90;;;;;;5095926;28;20172;-76
2023/08/05 04:48:20;;;;;;;5.10;4.60;;;15.60;99.90;;;;;;5095655;28;20604;-76
2023/08/05 04:50:46;;;;;;;6.93;4.87;;;15.90;99.90;;;;;;5095751;28;20533;-75
2023/08/05 04:53:14;;;;;;;6.70;4.53;;;16.30;99.90;;;;;;5095388;28;20177;-75
2023/08/05 04:55:40;;;;;;;4.30;3.90;;;16.60;99.90;;;;;;5095535;28;20192;-75
2023/08/05 04:58:05;;;;;;;5.87;3.90;;;17.10;99.90;;;;;;5095902;28;20654;-74
2023/08/05 05:00:31;;;;;;;3.80;3.50;;;17.80;95.80;;;;;;5095265;28;20247;-75
2023/08/05 05:02:57;;;;;;;4.25;3.78;;;18.40;62.30;;;;;;5095693;28;20168;-76
2023/08/05 05:05:22;;;;;;;3.80;3.50;;;18.90;42.50;;;;;;5095223;28;20207;-76
2023/08/05 05:07:48;;;;;;;4.53;3.78;;;19.70;33.20;;;;;;5095612;28;20175;-76
2023/08/05 05:10:13;;;;;;;3.30;2.92;;;20.30;9.50;;;;;;5095360;28;20250;-75
2023/08/05 05:12:39;;;;;;;3.72;3.28;;;20.00;6.40;;;;;;5093795;28;20182;-75
2023/08/05 05:15:05;;;;;;;6.53;3.47;;;19.30;14.20;;;;;;5094874;28;20527;-74
2023/08/05 05:17:35;;;;;;;5.88;3.63;;;18.50;33.40;;;;;;5094988;28;20172;-75
2023/08/05 05:20:02;;;;;;;3.30;3.10;;;18.30;46.00;;;;;;5095039;28;20226;-74
2023/08/05 05:22:28;;;;;;;5.25;3.05;;;17.80;56.70;;;;;;5094237;28;20188;-74
2023/08/05 05:24:53;;;;;;;3.20;2.90;;;17.40;74.50;;;;;;5094907;28;20246;-74
2023/08/05 05:27:19;;;;;;;3.47;3.05;;;17.30;78.60;;;;;;5095230;28;20175;-75
2023/08/05 05:29:45;;;;;;;4.18;3.30;;;17.20;87.90;;;;;;5093495;28;20175;-75
2023/08/05 05:32:11;;;;;;;7.03;3.60;;;17.20;89.90;;;;;;5095322;28;20195;-75
2023/08/05 05:34:36;;;;;;;3.75;3.33;;;17.10;91.50;;;;;;5095038;28;20635;-75
2023/08/05 05:37:02;;;;;;;4.90;3.80;;;17.10;89.40;;;;;;5094660;28;20183;-74
2023/08/05 05:39:28;;;;;;;4.22;3.45;;;16.80;95.60;;;;;;5094432;28;20569;-74
2023/08/05 05:41:55;;;;;;;4.07;3.72;;;16.80;99.60;;;;;;5093218;28;20226;-74
2023/08/05 05:44:24;;;;;;;5.00;4.47;;;16.70;99.90;;;;;;5094393;28;20290;-75
2023/08/05 05:46:49;;;;;;;4.68;4.25;;;16.70;99.90;;;;;;5094458;28;20170;-75
2023/08/05 05:49:15;;;;;;;4.72;4.35;;;16.60;99.90;;;;;;5094570;28;20172;-74
2023/08/05 05:51:42;;;;;;;4.85;4.40;;;16.70;99.90;;;;;;5094501;28;20172;-74
2023/08/05 05:54:08;;;;;;;6.37;5.23;;;16.60;99.90;;;;;;5093887;28;20184;-75
2023/08/05 05:56:34;;;;;;;5.93;4.85;;;16.60;99.90;;;;;;5094550;28;20164;-75
2023/08/05 05:58:59;;;;;;;6.30;5.13;;;16.70;99.90;;;;;;5093938;28;20198;-75
2023/08/05 06:01:25;;;;;;;6.30;5.70;;;16.80;99.90;;;;;;5094330;28;20167;-75
2023/08/05 06:03:51;;;;;;;5.60;5.10;;;16.60;99.90;;;;;;5092849;28;20234;-75
2023/08/05 06:06:16;;;;;;;6.63;6.03;;;16.70;99.90;;;;;;5094137;28;20532;-75
2023/08/05 06:08:42;;;;;;;7.03;6.07;;;16.70;99.90;;;;;;5094123;28;20176;-75
2023/08/05 06:11:08;;;;;;;7.87;6.77;;;16.70;99.90;;;;;;5093906;28;20166;-75
2023/08/05 06:13:34;;;;;;;8.47;7.57;;;16.70;99.90;;;;;;5093721;28;20556;-74
2023/08/05 06:16:00;;;;;;;10.13;7.65;;;16.50;99.90;;;;;;5094028;28;20186;-74
2023/08/05 06:18:26;;;;;;;14.10;8.23;;;16.30;99.90;;;;;;5094058;28;20172;-74
2023/08/05 06:20:51;;;;;;;9.05;8.00;;;16.30;99.90;;;;;;5094032;28;20172;-75
2023/08/05 06:23:17;;;;;;;12.13;9.27;;;16.40;99.90;;;;;;5093550;28;20181;-73
2023/08/05 06:25:44;;;;;;;12.70;10.33;;;16.40;99.90;;;;;;5094070;28;20180;-75
2023/08/05 06:28:10;;;;;;;13.00;10.27;;;16.40;99.90;;;;;;5093401;28;20526;-75
2023/08/05 06:30:36;;;;;;;16.90;11.87;;;16.40;99.90;;;;;;5093626;28;20225;-74
2023/08/05 06:33:01;;;;;;;16.43;12.93;;;16.40;99.90;;;;;;5092836;28;20263;-74
2023/08/05 06:35:27;;;;;;;17.07;13.83;;;16.40;99.90;;;;;;5093691;28;20176;-74
2023/08/05 06:37:52;;;;;;;17.93;13.43;;;16.50;99.90;;;;;;5093450;28;20175;-76
2023/08/05 06:40:18;;;;;;;18.33;13.30;;;16.40;99.90;;;;;;5092928;28;20172;-74
2023/08/05 06:42:44;;;;;;;16.97;12.80;;;16.60;99.90;;;;;;5093358;28;20662;-75
2023/08/05 06:45:10;;;;;;;17.10;12.43;;;16.80;99.90;;;;;;5093590;28;20199;-74
2023/08/05 06:47:35;;;;;;;20.03;12.97;;;17.00;99.90;;;;;;5093464;28;20172;-76
2023/08/05 06:50:06;;;;;;;16.63;12.93;;;16.80;99.90;;;;;;5093326;28;20175;-75
2023/08/05 06:52:32;;;;;;;19.23;13.43;;;16.90;99.90;;;;;;5092996;28;20160;-75
2023/08/05 06:55:00;;;;;;;16.73;12.77;;;17.00;99.90;;;;;;5093337;28;20326;-75
2023/08/05 06:57:26;;;;;;;14.73;12.77;;;17.10;99.90;;;;;;5091604;28;20171;-75
2023/08/05 06:59:52;;;;;;;16.53;12.20;;;17.20;99.90;;;;;;5093453;28;20171;-75
2023/08/05 07:02:18;;;;;;;14.30;11.93;;;17.20;99.90;;;;;;5093199;28;20619;-75
2023/08/05 07:04:43;;;;;;;15.67;11.97;;;17.20;99.90;;;;;;5091534;28;20254;-75
2023/08/05 07:07:09;;;;;;;12.40;10.77;;;17.20;99.90;;;;;;5093474;28;20160;-75
2023/08/05 07:09:35;;;;;;;14.53;10.93;;;17.00;99.90;;;;;;5093111;28;20698;-75
2023/08/05 07:12:00;;;;;;;14.30;10.83;;;17.10;99.90;;;;;;5092838;28;20168;-74
2023/08/05 07:14:26;;;;;;;14.55;10.95;;;17.20;99.90;;;;;;5093236;28;20519;-75
2023/08/05 07:16:52;;;;;;;14.02;10.25;;;17.20;99.90;;;;;;5092839;28;20168;-75
2023/08/05 07:19:18;;;;;;;12.70;10.23;;;17.30;99.90;;;;;;5093006;28;20168;-76
2023/08/05 07:21:43;;;;;;;11.35;9.52;;;17.60;99.90;;;;;;5092913;28;20164;-75
2023/08/05 07:24:09;;;;;;;11.25;9.13;;;17.70;99.90;;;;;;5092731;28;20679;-75
2023/08/05 07:26:34;;;;;;;10.57;8.48;;;18.20;99.90;;;;;;5092337;28;20248;-75
2023/08/05 07:29:00;;;;;;;12.30;8.27;;;18.30;99.90;;;;;;5093137;28;20172;-76
2023/08/05 07:31:25;;;;;;;11.57;8.23;;;18.60;91.50;;;;;;5091654;28;20164;-75
2023/08/05 07:33:51;;;;;;;11.88;7.57;;;18.70;83.50;;;;;;5092879;28;20171;-76
2023/08/05 07:36:17;;;;;;;9.07;7.45;;;18.90;78.40;;;;;;5091315;28;20260;-76
2023/08/05 07:38:45;;;;;;;9.93;7.65;;;19.40;64.70;;;;;;5093139;28;20185;-76
2023/08/05 07:41:12;;;;;;;9.05;6.78;;;19.30;57.90;;;;;;5092632;28;20211;-76
2023/08/05 07:43:38;;;;;;;9.95;7.22;;;19.50;52.80;;;;;;5092688;28;20686;-76
2023/08/05 07:46:05;;;;;;;10.18;7.35;;;19.50;44.60;;;;;;5096729;28;20175;-75
2023/08/05 07:48:35;;;;;;;10.90;7.20;;;19.50;46.40;;;;;;5096695;28;20627;-76
2023/08/05 07:51:02;;;;;;;14.10;7.07;;;19.60;45.60;;;;;;5095829;28;20203;-76
2023/08/05 07:53:30;;;;;;;11.45;7.53;;;19.60;43.30;;;;;;5096557;28;20164;-75
2023/08/05 07:55:56;;;;;;;11.35;7.28;;;19.70;41.00;;;;;;5096526;28;20631;-76
2023/08/05 07:58:22;;;;;;;10.32;6.82;;;20.10;30.10;;;;;;5096718;28;20172;-76
2023/08/05 08:00:47;;;;;;;6.50;5.85;;;20.30;16.70;;;;;;5096817;28;20234;-76
2023/08/05 08:03:13;;;;;;;7.28;6.00;;;20.40;14.30;;;;;;5096302;28;20194;-77
2023/08/05 08:05:38;;;;;;;7.82;6.15;;;20.20;20.30;;;;;;5096452;28;20200;-76
2023/08/05 08:08:04;;;;;;;6.43;5.70;;;20.20;15.70;;;;;;5096311;28;20175;-75
2023/08/05 08:10:30;;;;;;;8.02;6.65;;;19.70;25.70;;;;;;5096782;28;20172;-76
2023/08/05 08:12:55;;;;;;;9.48;6.60;;;19.50;28.60;;;;;;5095141;28;20223;-76
2023/08/05 08:15:21;;;;;;;8.80;6.63;;;19.00;44.70;;;;;;5096147;28;20283;-76
2023/08/05 08:17:47;;;;;;;6.72;6.13;;;18.90;51.90;;;;;;5095643;28;20493;-75
2023/08/05 08:20:12;;;;;;;9.70;5.40;;;18.80;49.20;;;;;;5096010;28;20218;-76
2023/08/05 08:22:38;;;;;;;7.85;5.60;;;18.90;47.00;;;;;;5095764;28;20282;-75
2023/08/05 08:25:04;;;;;;;8.32;4.97;;;18.90;46.80;;;;;;5095933;28;20263;-77
2023/08/05 08:27:30;;;;;;;7.18;4.97;;;19.10;45.00;;;;;;5096189;28;20177;-76
2023/08/05 08:29:55;;;;;;;6.75;4.57;;;19.20;37.70;;;;;;5095765;28;20160;-75
2023/08/05 08:32:21;;;;;;;5.65;4.18;;;19.30;29.90;;;;;;5096016;28;20167;-77
2023/08/05 08:34:46;;;;;;;6.88;3.97;;;19.60;28.20;;;;;;5095948;28;20167;-75
2023/08/05 08:37:12;;;;;;;5.45;3.90;;;20.00;9.80;;;;;;5094443;28;20176;-76
2023/08/05 08:39:38;;;;;;;7.57;5.35;;;20.30;6.00;;;;;;5096113;28;20167;-77
2023/08/05 08:42:04;;;;;;;6.07;3.80;;;21.40;1.00;;;;;;5095230;28;20212;-77
2023/08/05 08:44:31;;;;;;;5.25;3.35;;;21.80;1.00;;;;;;5096406;28;20253;-77
2023/08/05 08:46:58;;;;;;;4.38;3.08;;;22.00;1.00;;;;;;5095329;28;20203;-76
2023/08/05 08:49:25;;;;;;;6.93;3.20;;;22.60;1.00;;;;;;5096008;28;20164;-76
2023/08/05 08:51:53;;;;;;;5.63;2.90;;;22.80;1.00;;;;;;5095238;28;20251;-75
2023/08/05 08:54:20;;;;;;;2.70;2.50;;;23.40;1.00;;;;;;5095418;28;20188;-76
2023/08/05 08:56:46;;;;;;;5.18;2.72;;;23.90;1.00;;;;;;5094252;28;20164;-77
2023/08/05 08:59:12;;;;;;;4.03;2.45;;;24.60;1.00;;;;;;5095576;28;20179;-77
2023/08/05 09:01:42;;;;;;;4.32;2.30;;;24.70;1.00;;;;;;5095390;28;20175;-77
2023/08/05 09:04:11;;;;;;;6.32;2.30;;;24.60;99.90;;;;;;5095322;28;20211;-78
2023/08/05 09:06:41;;;;;;;2.53;2.08;;;24.30;99.90;;;;;;5094607;28;20627;-76
2023/08/05 09:09:06;;;;;;;3.58;1.88;;;24.50;99.90;;;;;;5095436;28;20172;-77
2023/08/05 09:11:32;;;;;;;2.42;2.03;;;23.60;1.00;;;;;;5094174;28;20618;-77
2023/08/05 09:13:58;;;;;;;3.08;2.25;;;23.40;1.00;;;;;;5095240;28;20172;-76
2023/08/05 09:16:24;;;;;;;3.88;2.42;;;24.10;1.00;;;;;;5095080;28;20172;-76
2023/08/05 09:18:55;;;;;;;2.65;1.90;;;23.60;1.00;;;;;;5095117;28;20190;-76
2023/08/05 09:21:29;;;;;;;3.35;2.28;;;22.70;1.00;;;;;;5094660;28;20305;-76
2023/08/05 09:23:58;;;;;;;2.50;2.30;;;22.40;1.00;;;;;;5095001;28;20210;-76
2023/08/05 09:26:28;;;;;;;5.68;2.75;;;22.00;1.00;;;;;;5094725;28;20163;-75
2023/08/05 09:28:55;;;;;;;3.10;2.35;;;21.90;1.00;;;;;;5095169;28;20172;-75
2023/08/05 09:31:20;;;;;;;5.22;2.55;;;21.80;1.00;;;;;;5094080;28;20269;-76
2023/08/05 09:33:46;;;;;;;4.97;2.53;;;21.50;1.00;;;;;;5094773;28;20651;-75
2023/08/05 09:36:12;;;;;;;2.50;2.30;;;21.10;1.00;;;;;;5094684;28;20180;-75
2023/08/05 09:38:44;;;;;;;2.90;2.70;;;20.30;1.00;;;;;;5094913;28;20196;-75
2023/08/05 09:41:11;;;;;;;3.53;2.85;;;20.10;1.00;;;;;;5094176;28;20211;-76
2023/08/05 09:43:43;;;;;;;4.10;3.00;;;20.40;1.00;;;;;;5093369;28;20600;-76
2023/08/05 09:46:12;;;;;;;3.90;2.50;;;20.60;1.00;;;;;;5094624;28;20210;-76
2023/08/05 09:48:44;;;;;;;5.32;2.83;;;21.10;1.00;;;;;;5094477;28;20217;-76
2023/08/05 09:51:16;;;;;;;3.00;2.55;;;21.50;1.00;;;;;;5093810;28;20179;-76
2023/08/05 09:53:42;;;;;;;4.22;2.75;;;21.40;1.00;;;;;;5094276;28;20213;-76
2023/08/05 09:56:10;;;;;;;4.05;2.78;;;21.40;1.00;;;;;;5093114;28;20186;-76
2023/08/05 09:58:37;;;;;;;3.65;3.28;;;21.30;1.00;;;;;;5094423;28;20179;-75
2023/08/05 10:01:07;;;;;;;4.93;3.33;;;21.10;1.00;;;;;;5093798;28;20186;-75
2023/08/05 10:03:37;;;;;;;6.05;3.17;;;20.80;1.00;;;;;;5093638;28;20168;-75
2023/08/05 10:06:05;;;;;;;5.45;2.90;;;20.20;1.00;;;;;;5093607;28;20176;-76
2023/08/05 10:08:33;;;;;;;3.47;2.90;;;20.20;1.00;;;;;;5094043;28;20297;-75
2023/08/05 10:11:00;;;;;;;3.45;3.15;;;20.10;1.00;;;;;;5094182;28;20619;-74
2023/08/05 10:13:26;;;;;;;4.63;2.85;;;19.80;1.00;;;;;;5092164;28;20167;-76
2023/08/05 10:15:54;;;;;;;3.40;3.10;;;19.90;1.00;;;;;;5094184;28;20172;-76
2023/08/05 10:18:21;;;;;;;3.55;3.25;;;20.10;1.00;;;;;;5093416;28;20171;-76
2023/08/05 10:20:51;;;;;;;3.30;2.90;;;20.70;1.00;;;;;;5094018;28;20669;-75
2023/08/05 10:23:17;;;;;;;3.75;3.20;;;20.70;1.00;;;;;;5093902;28;20225;-75
2023/08/05 10:25:44;;;;;;;3.63;2.90;;;20.90;1.00;;;;;;5093270;28;20654;-76
2023/08/05 10:28:31;;;;;;;5.47;3.13;;;20.70;1.00;;;;;;5093852;28;20174;-75
2023/08/05 10:30:57;;;;;;;3.22;2.80;;;20.80;1.00;;;;;;5093521;28;20172;-74
2023/08/05 10:33:24;;;;;;;3.15;2.85;;;20.40;1.00;;;;;;5093485;28;20241;-75
2023/08/05 10:35:59;;;;;;;6.03;3.05;;;20.10;1.00;;;;;;5093373;28;20176;-75
2023/08/05 10:38:25;;;;;;;3.55;3.33;;;19.60;1.00;;;;;;5093376;28;20164;-75
2023/08/05 10:41:03;;;;;;;3.40;3.10;;;19.40;1.00;;;;;;5093072;28;20299;-74
2023/08/05 10:43:35;;;;;;;3.20;2.97;;;19.00;1.00;;;;;;5093436;28;20658;-74
2023/08/05 10:46:07;;;;;;;4.00;3.30;;;18.80;1.00;;;;;;5093143;28;20180;-74
2023/08/05 10:48:47;;;;;;;4.63;3.30;;;18.50;8.90;;;;;;5092891;28;20662;-74
2023/08/05 10:51:20;;;;;;;3.45;3.00;;;18.30;14.70;;;;;;5093321;28;20239;-74
2023/08/05 10:53:55;;;;;;;9.27;3.83;;;18.20;17.60;;;;;;5092688;28;20179;-74
2023/08/05 10:56:32;;;;;;;3.65;3.25;;;18.20;24.00;;;;;;5093353;28;20167;-73
2023/08/05 10:59:02;;;;;;;3.83;3.30;;;18.30;23.70;;;;;;5092832;28;20217;-74
2023/08/05 11:01:56;;;;;;;5.38;3.60;;;18.20;20.70;;;;;;5092838;28;20175;-74
2023/08/05 11:04:31;;;;;;;3.47;3.17;;;18.20;31.50;;;;;;5092187;28;20196;-74
2023/08/05 11:07:00;;;;;;;5.57;2.83;;;18.10;30.00;;;;;;5092968;28;20301;-74
2023/08/05 11:09:26;;;;;;;6.45;3.88;;;17.90;25.70;;;;;;5091426;28;20172;-74
2023/08/05 11:11:52;;;;;;;4.50;3.38;;;17.90;28.10;;;;;;5092702;28;20225;-74
2023/08/05 11:14:19;;;;;;;5.47;3.75;;;17.80;28.60;;;;;;5092946;28;20207;-74
2023/08/05 11:16:47;;;;;;;3.63;3.28;;;17.70;41.10;;;;;;5092232;28;20195;-74
2023/08/05 11:19:13;;;;;;;5.38;3.88;;;17.80;50.50;;;;;;5092145;28;20207;-74
2023/08/05 11:21:44;;;;;;;5.50;3.50;;;17.60;48.60;;;;;;5092882;28;20218;-75
2023/08/05 11:24:17;;;;;;;5.00;3.57;;;17.50;65.00;;;;;;5091123;28;20602;-75
2023/08/05 11:26:43;;;;;;;7.07;3.47;;;17.40;74.80;;;;;;5092919;28;20251;-75
2023/08/05 11:29:09;;;;;;;8.10;3.60;;;17.40;90.00;;;;;;5092902;28;20310;-76
2023/08/05 11:31:34;;;;;;;6.57;3.50;;;17.40;88.30;;;;;;5091889;28;20164;-76
2023/08/05 11:34:00;;;;;;;3.75;3.40;;;17.30;90.50;;;;;;5092374;28;20164;-76
2023/08/05 11:36:27;;;;;;;5.18;3.45;;;17.40;94.40;;;;;;5093051;28;20600;-77
2023/08/05 11:38:57;;;;;;;3.40;3.10;;;17.40;92.40;;;;;;5092472;28;20301;-76
2023/08/05 11:41:23;;;;;;;7.38;3.60;;;17.50;90.20;;;;;;5092480;28;20227;-77
2023/08/05 11:43:49;;;;;;;4.38;3.38;;;17.60;93.00;;;;;;5092511;28;20261;-76
2023/08/05 11:46:29;;;;;;;6.10;3.05;;;17.70;85.70;;;;;;5090581;28;20184;-77
2023/08/05 11:49:11;;;;;;;5.65;3.42;;;17.90;72.70;;;;;;5092411;28;20167;-77
2023/08/05 11:51:50;;;;;;;6.70;4.03;;;17.90;61.60;;;;;;5092441;28;20627;-76
2023/08/05 11:54:31;;;;;;;4.88;3.78;;;18.10;76.90;;;;;;5092326;28;20188;-77
2023/08/05 11:56:58;;;;;;;4.80;3.50;;;18.10;64.90;;;;;;5092718;28;20530;-77
2023/08/05 11:59:37;;;;;;;5.00;3.80;;;18.30;61.70;;;;;;5092392;28;20171;-78
2023/08/05 12:02:04;;;;;;;5.88;3.90;;;18.30;57.60;;;;;;5091899;28;20180;-77
2023/08/05 12:04:29;;;;;;;4.03;3.70;;;18.40;60.50;;;;;;5092372;28;20302;-77
2023/08/05 12:06:55;;;;;;;6.32;4.20;;;18.30;71.00;;;;;;5092229;28;20562;-77
2023/08/05 12:09:20;;;;;;;7.07;3.40;;;18.20;78.30;;;;;;5092156;28;20168;-77
2023/08/05 12:11:46;;;;;;;6.55;3.55;;;18.10;64.90;;;;;;5092526;28;20550;-78
2023/08/05 12:14:12;;;;;;;4.45;3.80;;;17.90;69.70;;;;;;5092388;28;20183;-79
2023/08/05 12:16:38;;;;;;;6.07;3.60;;;17.80;86.80;;;;;;5091919;28;20624;-78
2023/08/05 12:19:04;;;;;;;6.70;4.00;;;17.90;92.90;;;;;;5092260;28;20179;-77
2023/08/05 12:21:29;;;;;;;4.85;3.95;;;18.00;97.70;;;;;;5092363;28;20168;-77
2023/08/05 12:23:55;;;;;;;5.78;3.30;;;18.20;88.00;;;;;;5092404;28;20290;-76
2023/08/05 12:26:27;;;;;;;4.13;3.17;;;18.30;64.70;;;;;;5092268;28;20160;-77
2023/08/05 12:28:53;;;;;;;5.97;3.00;;;18.20;60.40;;;;;;5091875;28;20262;-77
2023/08/05 12:31:18;;;;;;;3.95;3.55;;;18.20;64.50;;;;;;5095211;28;20687;-78
2023/08/05 12:33:44;;;;;;;3.70;3.40;;;17.90;83.40;;;;;;5095008;28;20228;-77
2023/08/05 12:36:10;;;;;;;5.43;3.00;;;18.10;76.60;;;;;;5095262;28;20175;-75
2023/08/05 12:38:35;;;;;;;3.15;2.70;;;17.90;68.00;;;;;;5095842;28;20251;-76
2023/08/05 12:41:01;;;;;;;4.93;3.17;;;17.70;64.90;;;;;;5093598;28;20226;-76
2023/08/05 12:43:27;;;;;;;3.40;3.03;;;17.70;90.30;;;;;;5095537;28;20172;-75